Time;durP1;ratioP1;P1;durP2;ratioP2;P2;SDS_P1;SDS_P2;PMS_P1;PMS_P2;Temp;Humidity;BMP_temperature;BMP_pressure;BME280_temperature;BME280_humidity;BME280_pressure;Samples;Min_cycle;Max_cycle;Signal;HPM_P1;HPM_P2
2023/11/17 00:00:05;;;;;;;4.35;3.58;;;5.40;99.90;;;;;;5053561;28;20258;-77
2023/11/17 00:02:32;;;;;;;6.10;3.90;;;5.40;99.90;;;;;;5048595;28;20200;-75
2023/11/17 00:04:59;;;;;;;5.88;4.20;;;5.50;99.90;;;;;;5054434;28;20234;-79
2023/11/17 00:07:28;;;;;;;6.57;3.70;;;5.40;99.90;;;;;;5040404;28;20666;-78
2023/11/17 00:09:56;;;;;;;4.30;3.92;;;5.40;99.90;;;;;;5040084;28;20209;-77
2023/11/17 00:12:23;;;;;;;7.38;4.13;;;5.30;99.90;;;;;;5049304;28;20208;-76
2023/11/17 00:14:52;;;;;;;5.25;4.13;;;5.30;99.90;;;;;;5054360;28;20593;-77
2023/11/17 00:17:20;;;;;;;10.73;5.60;;;5.20;99.90;;;;;;5039119;28;20204;-77
2023/11/17 00:19:47;;;;;;;6.45;3.85;;;5.20;99.90;;;;;;5050124;28;20624;-78
2023/11/17 00:22:14;;;;;;;7.38;4.68;;;5.20;99.90;;;;;;5036688;28;20234;-78
2023/11/17 00:24:42;;;;;;;8.13;5.28;;;5.20;99.90;;;;;;5035023;28;20230;-78
2023/11/17 00:27:10;;;;;;;8.05;4.85;;;5.20;99.90;;;;;;5052975;28;20298;-77
2023/11/17 00:29:38;;;;;;;6.10;5.03;;;5.20;99.90;;;;;;5035475;28;20197;-75
2023/11/17 00:32:07;;;;;;;5.55;4.97;;;5.30;99.90;;;;;;5052303;28;20222;-77
2023/11/17 00:34:34;;;;;;;5.90;4.78;;;5.20;99.90;;;;;;5054255;28;20694;-75
2023/11/17 00:37:06;;;;;;;7.90;5.35;;;5.20;99.90;;;;;;5051098;28;20192;-76
2023/11/17 00:39:34;;;;;;;8.30;5.50;;;5.20;99.90;;;;;;5044229;28;20208;-79
2023/11/17 00:42:02;;;;;;;6.88;5.40;;;5.20;99.90;;;;;;5045582;28;20292;-76
2023/11/17 00:44:30;;;;;;;8.70;5.80;;;5.10;99.90;;;;;;5050327;28;20228;-78
2023/11/17 00:46:56;;;;;;;9.88;7.50;;;5.00;99.90;;;;;;5053730;28;20237;-77
2023/11/17 00:49:26;;;;;;;9.43;6.13;;;5.00;99.90;;;;;;5051108;28;20197;-79
2023/11/17 00:51:53;;;;;;;8.95;6.10;;;5.00;99.90;;;;;;5053596;28;20219;-78
2023/11/17 00:54:25;;;;;;;9.63;7.30;;;5.00;99.90;;;;;;5054046;28;20723;-76
2023/11/17 00:56:54;;;;;;;9.18;6.30;;;5.00;99.90;;;;;;5050313;28;20382;-75
2023/11/17 00:59:22;;;;;;;10.77;5.85;;;5.10;99.90;;;;;;5049123;28;20226;-76
2023/11/17 01:01:50;;;;;;;7.70;6.18;;;5.20;99.90;;;;;;5053954;28;20204;-75
2023/11/17 01:04:17;;;;;;;7.13;6.00;;;5.20;99.90;;;;;;5045453;28;20310;-76
2023/11/17 01:06:45;;;;;;;11.48;6.63;;;5.20;99.90;;;;;;5052548;28;20200;-76
2023/11/17 01:09:12;;;;;;;8.07;6.40;;;5.20;99.90;;;;;;5052157;28;20727;-76
2023/11/17 01:11:41;;;;;;;8.50;6.10;;;5.20;99.90;;;;;;5053252;28;20211;-79
2023/11/17 01:14:09;;;;;;;8.18;6.60;;;5.20;99.90;;;;;;5052270;28;20243;-75
2023/11/17 01:16:36;;;;;;;8.35;6.63;;;5.30;99.90;;;;;;5050992;28;20206;-77
2023/11/17 01:19:03;;;;;;;9.85;7.25;;;5.20;99.90;;;;;;5047822;28;20361;-76
2023/11/17 01:21:30;;;;;;;9.85;8.55;;;5.20;99.90;;;;;;5053353;28;20571;-77
2023/11/17 01:24:01;;;;;;;14.60;8.30;;;5.20;99.90;;;;;;5051169;28;20586;-76
2023/11/17 01:26:28;;;;;;;10.18;7.47;;;5.20;99.90;;;;;;5052455;28;20284;-76
2023/11/17 01:28:55;;;;;;;9.07;7.10;;;5.20;99.90;;;;;;5045349;28;20650;-76
2023/11/17 01:31:22;;;;;;;9.95;7.13;;;5.30;99.90;;;;;;5053189;28;20233;-76
2023/11/17 01:33:50;;;;;;;8.30;6.85;;;5.40;99.90;;;;;;5052626;28;20250;-79
2023/11/17 01:36:17;;;;;;;9.85;6.10;;;5.30;99.90;;;;;;5052530;28;20287;-79
2023/11/17 01:38:44;;;;;;;13.32;6.57;;;5.30;99.90;;;;;;5054125;28;20213;-79
2023/11/17 01:41:13;;;;;;;7.60;6.75;;;5.20;99.90;;;;;;5053743;28;20291;-76
2023/11/17 01:43:43;;;;;;;10.57;7.07;;;5.10;99.90;;;;;;5044810;28;20245;-75
2023/11/17 01:46:10;;;;;;;8.32;6.30;;;5.00;99.90;;;;;;5052049;28;20207;-76
2023/11/17 01:48:43;;;;;;;7.97;6.07;;;5.00;99.90;;;;;;5052691;28;20228;-75
2023/11/17 01:51:11;;;;;;;6.72;6.05;;;5.00;99.90;;;;;;5094160;22;20226;-82
2023/11/17 01:53:38;;;;;;;7.20;6.30;;;4.90;99.90;;;;;;5063647;28;20691;-83
2023/11/17 01:56:05;;;;;;;9.75;6.78;;;4.80;99.90;;;;;;5057572;28;20211;-86
2023/11/17 01:58:34;;;;;;;10.07;7.45;;;4.80;99.90;;;;;;5058167;28;20574;-83
2023/11/17 02:01:03;;;;;;;6.78;5.78;;;4.80;99.90;;;;;;5065140;28;20224;-83
2023/11/17 02:03:30;;;;;;;11.73;7.57;;;4.60;99.90;;;;;;5061315;28;20272;-83
2023/11/17 02:06:05;;;;;;;10.73;7.43;;;4.50;99.90;;;;;;5059689;28;20239;-86
2023/11/17 02:08:43;;;;;;;9.60;6.80;;;4.60;99.90;;;;;;5061880;28;20642;-85
2023/11/17 02:11:18;;;;;;;8.63;6.85;;;4.40;99.90;;;;;;5061077;28;20232;-83
2023/11/17 02:13:50;;;;;;;11.40;7.72;;;4.40;99.90;;;;;;5061396;28;20247;-84
2023/11/17 02:16:24;;;;;;;8.02;6.28;;;4.20;99.90;;;;;;5058877;28;20205;-84
2023/11/17 02:18:54;;;;;;;10.50;6.55;;;4.20;99.90;;;;;;5058186;28;20196;-83
2023/11/17 02:21:29;;;;;;;9.88;6.95;;;4.20;99.90;;;;;;5050021;28;20219;-85
2023/11/17 02:23:56;;;;;;;10.70;7.00;;;4.10;99.90;;;;;;5053687;28;20211;-85
2023/11/17 02:26:36;;;;;;;8.27;7.38;;;4.00;99.90;;;;;;5060252;28;20208;-85
2023/11/17 02:29:10;;;;;;;11.80;8.50;;;4.00;99.90;;;;;;5057770;28;20195;-85
2023/11/17 02:31:39;;;;;;;8.80;6.88;;;3.90;99.90;;;;;;5046740;28;20272;-84
2023/11/17 02:34:08;;;;;;;9.73;6.90;;;3.90;99.90;;;;;;5046977;28;20219;-83
2023/11/17 02:36:36;;;;;;;15.00;8.68;;;3.90;99.90;;;;;;5057373;28;20669;-84
2023/11/17 02:39:14;;;;;;;11.85;7.68;;;3.80;99.90;;;;;;5060045;28;20215;-85
2023/11/17 02:41:43;;;;;;;15.73;8.20;;;3.80;99.90;;;;;;5055503;28;20697;-85
2023/11/17 02:44:15;;;;;;;13.15;8.55;;;3.80;99.90;;;;;;5048969;28;20208;-85
2023/11/17 02:46:44;;;;;;;13.60;9.15;;;3.80;99.90;;;;;;5058402;28;20291;-84
2023/11/17 02:49:22;;;;;;;13.50;8.75;;;3.70;99.90;;;;;;5060950;28;20199;-85
2023/11/17 02:51:51;;;;;;;8.68;6.65;;;3.70;99.90;;;;;;5051227;28;20204;-84
2023/11/17 02:54:22;;;;;;;10.50;8.10;;;3.80;99.90;;;;;;5059529;28;20223;-83
2023/11/17 02:56:50;;;;;;;12.65;7.53;;;3.90;99.90;;;;;;5057088;28;20263;-84
2023/11/17 02:59:19;;;;;;;11.23;8.48;;;3.90;99.90;;;;;;5059134;28;20199;-84
2023/11/17 03:01:47;;;;;;;9.27;8.25;;;3.90;99.90;;;;;;5059157;28;20230;-84
2023/11/17 03:04:15;;;;;;;11.35;8.20;;;3.90;99.90;;;;;;5058747;28;20200;-84
2023/11/17 03:06:46;;;;;;;12.50;8.18;;;3.90;99.90;;;;;;5059417;28;20213;-83
2023/11/17 03:09:14;;;;;;;9.65;7.55;;;4.10;99.90;;;;;;5047501;28;20203;-83
2023/11/17 03:11:42;;;;;;;11.95;7.75;;;4.10;99.90;;;;;;5054120;28;20208;-84
2023/11/17 03:14:09;;;;;;;11.73;9.00;;;4.10;99.90;;;;;;5050691;28;20473;-83
2023/11/17 03:16:36;;;;;;;10.43;8.40;;;4.00;99.90;;;;;;5045179;28;20220;-83
2023/11/17 03:19:10;;;;;;;9.77;7.95;;;4.00;99.90;;;;;;5048110;28;20211;-83
2023/11/17 03:21:40;;;;;;;11.38;7.10;;;4.00;99.90;;;;;;5060852;28;20275;-84
2023/11/17 03:24:14;;;;;;;9.75;6.82;;;4.10;99.90;;;;;;5066707;28;20200;-84
2023/11/17 03:26:42;;;;;;;9.93;7.43;;;4.10;99.90;;;;;;5053459;28;20296;-84
2023/11/17 03:29:09;;;;;;;12.75;6.47;;;4.30;99.90;;;;;;5051446;28;20261;-84
2023/11/17 03:31:35;;;;;;;8.30;6.88;;;4.20;99.90;;;;;;5052587;28;20315;-83
2023/11/17 03:34:08;;;;;;;9.43;7.43;;;4.30;99.90;;;;;;5073500;28;20208;-81
2023/11/17 03:36:35;;;;;;;7.57;5.88;;;4.30;99.90;;;;;;5064847;28;20235;-83
2023/11/17 03:39:12;;;;;;;9.55;8.23;;;4.40;99.90;;;;;;5056820;28;20208;-84
2023/11/17 03:41:39;;;;;;;9.07;6.63;;;4.20;99.90;;;;;;5057375;28;20568;-84
2023/11/17 03:44:06;;;;;;;8.30;6.25;;;4.20;99.90;;;;;;5061459;28;20744;-82
2023/11/17 03:46:33;;;;;;;8.27;6.55;;;4.10;99.90;;;;;;5057542;28;20275;-83
2023/11/17 03:49:00;;;;;;;9.52;6.85;;;4.10;99.90;;;;;;5056652;28;20295;-83
2023/11/17 03:51:28;;;;;;;13.45;9.10;;;3.90;99.90;;;;;;5055701;28;20259;-83
2023/11/17 03:53:55;;;;;;;12.43;8.68;;;3.80;99.90;;;;;;5057556;28;20295;-84
2023/11/17 03:56:22;;;;;;;16.27;7.97;;;3.70;99.90;;;;;;5056063;28;20279;-83
2023/11/17 03:58:49;;;;;;;9.32;7.60;;;3.70;99.90;;;;;;5051710;28;20204;-84
2023/11/17 04:01:15;;;;;;;9.93;8.93;;;3.80;99.90;;;;;;5044691;28;20288;-83
2023/11/17 04:03:41;;;;;;;14.40;8.88;;;3.80;99.90;;;;;;5049205;28;20228;-83
2023/11/17 04:06:09;;;;;;;11.05;9.43;;;3.80;99.90;;;;;;5058479;28;20199;-85
2023/11/17 04:08:37;;;;;;;10.57;8.30;;;3.90;99.90;;;;;;5058666;28;20673;-85
2023/11/17 04:11:04;;;;;;;10.75;8.00;;;3.90;99.90;;;;;;5050581;28;20275;-83
2023/11/17 04:13:35;;;;;;;12.10;8.35;;;3.90;99.90;;;;;;5049341;28;20224;-84
2023/11/17 04:16:02;;;;;;;9.35;8.38;;;3.90;99.90;;;;;;5044952;28;20625;-84
2023/11/17 04:18:29;;;;;;;12.77;9.60;;;3.90;99.90;;;;;;5052476;28;20214;-83
2023/11/17 04:20:56;;;;;;;11.40;9.40;;;3.80;99.90;;;;;;5055980;28;20220;-85
2023/11/17 04:23:23;;;;;;;11.50;8.55;;;3.80;99.90;;;;;;5061351;28;20207;-84
2023/11/17 04:25:51;;;;;;;10.38;9.15;;;3.80;99.90;;;;;;5047935;28;20211;-84
2023/11/17 04:28:18;;;;;;;10.52;9.45;;;3.90;99.90;;;;;;5042743;28;20287;-84
2023/11/17 04:30:45;;;;;;;9.20;7.72;;;3.80;99.90;;;;;;5054779;28;20216;-84
2023/11/17 04:33:12;;;;;;;10.60;8.27;;;3.90;99.90;;;;;;5054460;28;20218;-84
2023/11/17 04:35:39;;;;;;;10.05;8.40;;;4.00;99.90;;;;;;5060373;28;20210;-84
2023/11/17 04:38:05;;;;;;;10.60;7.97;;;4.00;99.90;;;;;;5050576;28;20208;-84
2023/11/17 04:40:33;;;;;;;11.07;7.97;;;4.20;99.90;;;;;;5056596;28;20240;-85
2023/11/17 04:43:04;;;;;;;8.68;7.68;;;4.40;99.90;;;;;;5049765;28;20455;-83
2023/11/17 04:45:35;;;;;;;10.13;7.65;;;4.30;99.90;;;;;;5047903;28;20196;-84
2023/11/17 04:48:05;;;;;;;10.68;7.60;;;4.30;99.90;;;;;;5053583;28;20204;-83
2023/11/17 04:50:32;;;;;;;8.75;7.18;;;4.40;99.90;;;;;;5060821;28;20281;-84
2023/11/17 04:53:01;;;;;;;8.02;6.85;;;4.50;99.90;;;;;;5055172;28;20268;-84
2023/11/17 04:55:28;;;;;;;9.65;6.80;;;4.50;99.90;;;;;;5070069;28;20204;-83
2023/11/17 04:57:55;;;;;;;6.50;5.72;;;4.60;99.90;;;;;;5069076;28;20192;-82
2023/11/17 05:00:25;;;;;;;9.10;6.75;;;4.80;99.90;;;;;;5061447;28;20227;-82
2023/11/17 05:02:53;;;;;;;8.73;7.10;;;4.80;99.90;;;;;;5064140;28;20192;-81
2023/11/17 05:05:20;;;;;;;6.63;5.60;;;4.80;99.90;;;;;;5056497;28;20215;-82
2023/11/17 05:07:47;;;;;;;7.25;6.43;;;4.80;99.90;;;;;;5065710;28;20218;-82
2023/11/17 05:10:18;;;;;;;8.60;7.13;;;5.00;99.90;;;;;;5068137;28;20226;-81
2023/11/17 05:12:46;;;;;;;9.60;6.20;;;5.10;99.90;;;;;;5069879;28;20195;-83
2023/11/17 05:15:13;;;;;;;7.15;6.38;;;5.00;99.90;;;;;;5067050;28;20223;-81
2023/11/17 05:17:44;;;;;;;7.97;6.35;;;4.90;99.90;;;;;;5068434;28;20197;-82
2023/11/17 05:20:12;;;;;;;6.78;6.13;;;5.00;99.90;;;;;;5063457;28;20299;-82
2023/11/17 05:22:39;;;;;;;8.40;6.03;;;5.10;99.90;;;;;;5054031;28;20762;-83
2023/11/17 05:25:07;;;;;;;6.40;5.78;;;5.10;99.90;;;;;;5056237;28;20666;-85
2023/11/17 05:27:34;;;;;;;6.88;4.72;;;5.20;99.90;;;;;;5066203;28;20274;-83
2023/11/17 05:30:01;;;;;;;5.22;4.53;;;5.40;99.90;;;;;;5067389;28;20315;-83
2023/11/17 05:32:29;;;;;;;6.00;4.65;;;5.40;99.90;;;;;;5066841;28;20219;-83
2023/11/17 05:34:57;;;;;;;5.70;4.30;;;5.40;99.90;;;;;;5062387;28;20239;-82
2023/11/17 05:37:24;;;;;;;7.85;6.53;;;5.40;99.90;;;;;;5066563;28;20207;-83
2023/11/17 05:39:51;;;;;;;9.82;6.13;;;5.40;99.90;;;;;;5061469;28;20274;-83
2023/11/17 05:42:18;;;;;;;7.95;5.95;;;5.60;99.90;;;;;;5073304;28;20204;-82
2023/11/17 05:44:45;;;;;;;6.35;4.45;;;5.50;99.90;;;;;;5067338;28;20208;-84
2023/11/17 05:47:12;;;;;;;9.38;4.70;;;5.60;99.90;;;;;;5069567;28;20223;-84
2023/11/17 05:49:43;;;;;;;6.43;5.45;;;5.80;99.90;;;;;;5063995;28;20241;-83
2023/11/17 05:52:12;;;;;;;7.32;5.75;;;5.70;99.90;;;;;;5057316;28;20262;-86
2023/11/17 05:54:43;;;;;;;7.47;5.60;;;5.70;99.90;;;;;;5059857;28;20315;-83
2023/11/17 05:57:11;;;;;;;6.65;5.47;;;5.80;99.90;;;;;;5062443;28;20200;-84
2023/11/17 05:59:38;;;;;;;5.45;4.95;;;5.80;99.90;;;;;;5060604;28;20219;-84
2023/11/17 06:02:05;;;;;;;6.30;4.88;;;5.90;99.90;;;;;;5060556;28;20234;-83
2023/11/17 06:04:34;;;;;;;6.85;5.22;;;6.00;99.90;;;;;;5055695;28;20201;-84
2023/11/17 06:07:01;;;;;;;5.22;4.28;;;5.80;99.90;;;;;;5063061;28;20605;-84
2023/11/17 06:09:30;;;;;;;6.15;4.75;;;6.00;99.90;;;;;;5052517;28;20232;-84
2023/11/17 06:11:57;;;;;;;5.97;4.90;;;6.10;99.90;;;;;;5059832;28;20200;-82
2023/11/17 06:14:27;;;;;;;9.82;5.10;;;6.10;99.90;;;;;;5068173;28;20234;-82
2023/11/17 06:16:54;;;;;;;6.68;5.40;;;6.20;99.90;;;;;;5068160;28;20204;-81
2023/11/17 06:19:22;;;;;;;7.75;5.45;;;6.20;99.90;;;;;;5073882;28;20289;-82
2023/11/17 06:21:48;;;;;;;5.83;5.00;;;6.20;99.90;;;;;;5069012;28;20223;-80
2023/11/17 06:24:15;;;;;;;5.72;5.13;;;6.30;99.90;;;;;;5066353;28;20501;-82
2023/11/17 06:26:45;;;;;;;5.32;4.82;;;6.40;99.90;;;;;;5081234;28;20183;-81
2023/11/17 06:29:12;;;;;;;6.45;4.85;;;6.60;99.90;;;;;;5078082;28;20191;-83
2023/11/17 06:31:39;;;;;;;6.25;4.95;;;6.60;99.90;;;;;;5069010;28;20214;-85
2023/11/17 06:34:06;;;;;;;7.35;5.82;;;6.60;99.90;;;;;;5058426;28;20281;-84
2023/11/17 06:36:37;;;;;;;5.40;4.88;;;6.50;99.90;;;;;;5062763;28;20279;-84
2023/11/17 06:39:13;;;;;;;9.80;5.90;;;6.60;99.90;;;;;;5064940;28;20629;-83
2023/11/17 06:41:41;;;;;;;7.10;4.80;;;6.70;99.90;;;;;;5067758;28;20476;-83
2023/11/17 06:44:10;;;;;;;7.28;5.22;;;6.70;99.90;;;;;;5064049;28;20233;-84
2023/11/17 06:46:37;;;;;;;6.10;4.88;;;6.70;99.90;;;;;;5059501;28;20291;-83
2023/11/17 06:49:05;;;;;;;9.93;6.35;;;6.80;99.90;;;;;;5069111;28;20199;-83
2023/11/17 06:51:32;;;;;;;6.68;6.07;;;6.80;99.90;;;;;;5067142;28;20323;-84
2023/11/17 06:53:59;;;;;;;6.80;5.78;;;6.80;99.90;;;;;;5067223;28;20224;-82
2023/11/17 06:56:29;;;;;;;8.65;5.18;;;7.00;99.90;;;;;;5067072;28;20187;-82
2023/11/17 06:58:56;;;;;;;5.82;5.00;;;6.80;99.90;;;;;;5069529;28;20219;-82
2023/11/17 07:01:24;;;;;;;6.63;6.00;;;6.70;99.90;;;;;;5071255;28;20251;-83
2023/11/17 07:03:51;;;;;;;8.45;5.80;;;6.70;99.90;;;;;;5071020;28;20658;-83
2023/11/17 07:06:17;;;;;;;8.18;5.03;;;6.70;99.90;;;;;;5068416;28;20227;-82
2023/11/17 07:08:44;;;;;;;10.20;5.38;;;6.50;99.90;;;;;;5072408;28;20245;-83
2023/11/17 07:11:15;;;;;;;5.95;5.25;;;6.40;99.90;;;;;;5065757;28;20289;-80
2023/11/17 07:13:42;;;;;;;6.13;5.22;;;6.40;99.90;;;;;;5065797;28;20197;-82
2023/11/17 07:16:12;;;;;;;10.82;6.22;;;6.40;99.90;;;;;;5061404;28;20270;-84
2023/11/17 07:18:40;;;;;;;7.32;5.65;;;6.30;99.90;;;;;;5060305;28;20212;-85
2023/11/17 07:21:08;;;;;;;6.95;5.60;;;6.20;99.90;;;;;;5061811;28;20219;-79
2023/11/17 07:23:35;;;;;;;5.57;5.05;;;6.20;99.90;;;;;;5059725;28;20272;-82
2023/11/17 07:26:03;;;;;;;9.25;6.00;;;6.30;99.90;;;;;;5065207;28;20280;-81
2023/11/17 07:28:29;;;;;;;15.30;5.97;;;6.30;99.90;;;;;;5060996;28;20200;-81
2023/11/17 07:30:59;;;;;;;11.55;6.90;;;6.30;99.90;;;;;;5060321;28;20678;-78
2023/11/17 07:33:26;;;;;;;6.70;5.47;;;6.30;99.90;;;;;;5046465;28;20273;-80
2023/11/17 07:35:54;;;;;;;5.90;5.30;;;6.30;99.90;;;;;;5061130;28;20223;-81
2023/11/17 07:38:51;;;;;;;8.65;5.90;;;6.40;99.90;;;;;;5055194;28;20217;-86
2023/11/17 07:41:19;;;;;;;6.72;4.85;;;6.50;99.90;;;;;;5057280;28;20263;-84
2023/11/17 07:43:46;;;;;;;9.35;5.60;;;6.60;99.90;;;;;;5061027;28;20200;-82
2023/11/17 07:46:14;;;;;;;6.53;5.88;;;6.50;99.90;;;;;;5050040;28;20565;-87
2023/11/17 07:48:59;;;;;;;5.97;5.38;;;6.70;99.90;;;;;;5062246;28;20263;-86
2023/11/17 07:51:27;;;;;;;7.57;6.13;;;6.60;99.90;;;;;;5099069;22;20616;-86
2023/11/17 07:53:56;;;;;;;13.80;8.13;;;6.60;99.90;;;;;;5067665;28;20207;-84
2023/11/17 07:56:23;;;;;;;8.15;6.93;;;6.80;99.90;;;;;;5080628;28;20237;-86
2023/11/17 07:58:49;;;;;;;7.90;6.00;;;6.80;99.90;;;;;;5074098;28;20256;-87
2023/11/17 08:01:17;;;;;;;8.57;4.83;;;6.90;99.90;;;;;;5077533;28;20331;-86
2023/11/17 08:03:45;;;;;;;4.85;4.38;;;6.90;99.90;;;;;;5068132;28;20480;-86
2023/11/17 08:06:12;;;;;;;6.97;5.50;;;7.40;99.90;;;;;;5075060;28;20200;-87
2023/11/17 08:08:40;;;;;;;6.72;5.70;;;7.50;99.90;;;;;;5089526;28;20194;-83
2023/11/17 08:11:09;;;;;;;7.38;5.38;;;7.50;99.90;;;;;;5078075;28;20242;-87
2023/11/17 08:13:37;;;;;;;5.88;5.15;;;7.40;99.90;;;;;;5085566;28;20224;-85
2023/11/17 08:16:06;;;;;;;6.15;5.03;;;7.50;99.90;;;;;;5071487;28;20228;-86
2023/11/17 08:18:33;;;;;;;7.13;6.18;;;8.00;99.90;;;;;;5070135;28;20219;-85
2023/11/17 08:21:00;;;;;;;6.55;5.50;;;8.30;99.90;;;;;;5076397;28;20207;-85
2023/11/17 08:23:27;;;;;;;6.88;4.65;;;8.30;99.90;;;;;;5071724;28;20223;-86
2023/11/17 08:25:55;;;;;;;5.32;4.35;;;9.10;99.90;;;;;;5058354;28;20200;-86
2023/11/17 08:28:23;;;;;;;7.20;4.60;;;10.20;99.90;;;;;;5063610;28;20205;-84
2023/11/17 08:30:51;;;;;;;5.13;4.63;;;11.10;99.90;;;;;;5065016;28;20319;-85
2023/11/17 08:33:18;;;;;;;9.15;4.75;;;11.60;99.90;;;;;;5061263;28;20212;-86
2023/11/17 08:35:45;;;;;;;7.18;5.05;;;11.70;99.90;;;;;;5052710;28;20230;-85
2023/11/17 08:38:12;;;;;;;7.72;5.95;;;11.40;99.90;;;;;;5052977;28;20201;-86
2023/11/17 08:40:40;;;;;;;5.78;5.18;;;11.20;99.90;;;;;;5065396;28;20226;-85
2023/11/17 08:43:09;;;;;;;8.20;5.40;;;10.90;99.90;;;;;;5073877;28;20454;-84
2023/11/17 08:45:36;;;;;;;6.50;4.65;;;11.10;99.90;;;;;;5060264;28;20327;-86
2023/11/17 08:48:03;;;;;;;4.50;4.07;;;11.50;99.90;;;;;;5067242;28;20205;-85
2023/11/17 08:50:30;;;;;;;8.57;4.93;;;12.10;99.90;;;;;;5062476;28;20260;-84
2023/11/17 08:52:57;;;;;;;4.50;4.10;;;13.00;99.90;;;;;;5071677;28;20219;-85
2023/11/17 08:55:27;;;;;;;7.93;5.57;;;13.80;99.90;;;;;;5065178;28;20196;-86
2023/11/17 08:57:55;;;;;;;8.52;6.70;;;14.60;99.90;;;;;;5078062;28;20454;-86
2023/11/17 09:00:25;;;;;;;9.10;3.57;;;15.10;97.00;;;;;;5065327;28;20246;-86
2023/11/17 09:02:53;;;;;;;11.70;5.90;;;15.50;95.30;;;;;;5069038;28;20432;-86
2023/11/17 09:05:23;;;;;;;5.43;4.93;;;15.50;94.70;;;;;;5060833;28;20566;-86
2023/11/17 09:07:51;;;;;;;6.45;4.35;;;14.80;94.90;;;;;;5057293;28;20224;-83
2023/11/17 09:10:21;;;;;;;5.55;4.07;;;14.30;95.40;;;;;;5055935;28;20676;-89
2023/11/17 09:12:56;;;;;;;6.03;5.05;;;13.50;96.20;;;;;;5063062;28;20204;-87
2023/11/17 09:15:24;;;;;;;6.47;4.72;;;12.60;97.20;;;;;;5060102;28;20206;-86
2023/11/17 09:17:53;;;;;;;7.10;5.10;;;12.10;98.70;;;;;;5063642;28;20206;-86
2023/11/17 09:20:43;;;;;;;8.30;4.85;;;11.60;99.90;;;;;;5065512;28;20215;-86
2023/11/17 09:23:09;;;;;;;9.55;5.07;;;11.20;99.90;;;;;;5077770;28;20249;-84
2023/11/17 09:25:37;;;;;;;11.77;5.57;;;11.70;99.90;;;;;;5071231;28;20211;-83
2023/11/17 09:28:04;;;;;;;5.30;4.80;;;11.40;99.90;;;;;;5077714;28;20198;-84
2023/11/17 09:30:33;;;;;;;7.25;4.80;;;11.40;99.90;;;;;;5073355;28;20330;-84
2023/11/17 09:33:04;;;;;;;5.95;4.97;;;11.20;99.90;;;;;;5061526;28;20241;-86
2023/11/17 09:35:35;;;;;;;5.85;4.53;;;11.10;99.90;;;;;;5057463;28;20564;-85
2023/11/17 09:38:21;;;;;;;5.45;4.10;;;11.20;99.90;;;;;;5069408;28;20209;-85
2023/11/17 09:41:33;;;;;;;;;;;;;;;;;;;;;
2023/11/17 09:44:38;;;;;;;5.10;3.67;;;12.10;99.90;;;;;;5043122;28;20208;-86
2023/11/17 09:47:18;;;;;;;4.80;4.15;;;13.40;99.90;;;;;;5060286;28;20240;-86
2023/11/17 09:49:57;;;;;;;5.03;4.10;;;14.30;98.80;;;;;;5068405;28;20203;-86
2023/11/17 09:52:44;;;;;;;9.90;3.97;;;14.90;96.90;;;;;;5075883;28;20452;-83
2023/11/17 09:55:13;;;;;;;5.73;4.63;;;15.30;96.20;;;;;;5095922;28;20436;-82
2023/11/17 09:57:42;;;;;;;7.85;5.18;;;15.50;95.60;;;;;;5069118;28;20443;-85
2023/11/17 10:00:17;;;;;;;12.17;4.63;;;15.60;95.20;;;;;;5067191;28;20284;-85
2023/11/17 10:02:51;;;;;;;13.23;5.10;;;15.90;95.00;;;;;;5056663;28;20545;-85
2023/11/17 10:05:20;;;;;;;7.40;4.93;;;15.70;94.50;;;;;;5055553;28;20499;-83
2023/11/17 10:07:48;;;;;;;6.25;4.65;;;15.10;95.50;;;;;;5069306;28;20220;-83
2023/11/17 10:10:19;;;;;;;5.65;5.05;;;14.80;96.00;;;;;;5066624;28;20324;-82
2023/11/17 10:12:48;;;;;;;6.93;4.80;;;14.50;96.30;;;;;;5063651;28;20206;-84
2023/11/17 10:15:18;;;;;;;5.18;4.65;;;14.20;97.30;;;;;;5061562;28;20227;-83
2023/11/17 10:17:48;;;;;;;7.68;5.53;;;13.90;97.40;;;;;;5063622;28;20545;-83
2023/11/17 10:20:18;;;;;;;10.87;6.03;;;13.70;98.00;;;;;;5067526;28;20239;-83
2023/11/17 10:22:49;;;;;;;6.00;4.70;;;13.60;97.80;;;;;;5071190;28;20438;-83
2023/11/17 10:25:18;;;;;;;4.70;3.85;;;13.50;98.00;;;;;;5069974;28;20220;-83
2023/11/17 10:27:46;;;;;;;5.50;4.15;;;13.50;98.10;;;;;;5061613;28;20223;-83
2023/11/17 10:30:15;;;;;;;7.75;5.30;;;13.10;98.70;;;;;;5071636;28;20280;-83
2023/11/17 10:32:49;;;;;;;5.20;4.70;;;12.90;98.90;;;;;;5072652;28;20234;-83
2023/11/17 10:35:24;;;;;;;7.15;4.80;;;12.60;99.30;;;;;;5072502;28;20271;-84
2023/11/17 10:37:54;;;;;;;6.07;4.97;;;12.30;99.90;;;;;;5069763;28;20292;-83
2023/11/17 10:40:27;;;;;;;12.68;5.45;;;12.20;99.90;;;;;;5066529;28;20263;-84
2023/11/17 10:43:07;;;;;;;5.82;5.10;;;11.90;99.90;;;;;;5064991;28;20208;-83
2023/11/17 10:45:35;;;;;;;6.13;5.53;;;11.60;99.90;;;;;;5059023;28;20219;-84
2023/11/17 10:48:06;;;;;;;5.10;4.32;;;11.50;99.90;;;;;;5070244;28;20238;-83
2023/11/17 10:50:35;;;;;;;10.75;5.60;;;11.30;99.90;;;;;;5067267;28;20270;-85
2023/11/17 10:53:13;;;;;;;8.30;4.88;;;11.00;99.90;;;;;;5067335;28;20267;-81
2023/11/17 10:55:42;;;;;;;6.25;5.30;;;10.90;99.90;;;;;;5072045;28;20201;-84
2023/11/17 10:58:15;;;;;;;5.57;4.32;;;10.90;99.90;;;;;;5058976;28;20240;-83
2023/11/17 11:00:42;;;;;;;5.75;4.85;;;10.90;99.90;;;;;;5058794;28;20220;-84
2023/11/17 11:03:13;;;;;;;6.47;5.60;;;10.90;99.90;;;;;;5050918;28;20184;-83
2023/11/17 11:05:41;;;;;;;6.32;5.45;;;10.90;99.90;;;;;;5064655;28;20231;-83
2023/11/17 11:08:12;;;;;;;6.82;5.65;;;10.90;99.90;;;;;;5068528;28;20247;-82
2023/11/17 11:10:39;;;;;;;5.57;4.90;;;10.80;99.90;;;;;;5069777;28;20235;-82
2023/11/17 11:13:06;;;;;;;6.03;5.53;;;10.80;99.90;;;;;;5060316;28;20242;-83
2023/11/17 11:15:33;;;;;;;5.68;4.57;;;10.70;99.90;;;;;;5065417;28;20233;-82
2023/11/17 11:18:06;;;;;;;5.88;4.53;;;10.60;99.90;;;;;;5070796;28;20206;-83
2023/11/17 11:20:34;;;;;;;7.05;5.85;;;10.50;99.90;;;;;;5060008;28;20244;-84
2023/11/17 11:23:03;;;;;;;5.68;3.83;;;10.40;99.90;;;;;;5057733;28;20266;-85
2023/11/17 11:25:31;;;;;;;4.00;3.60;;;10.50;99.90;;;;;;5057056;28;20200;-83
2023/11/17 11:28:03;;;;;;;6.28;5.60;;;10.50;99.90;;;;;;5059711;28;20204;-83
2023/11/17 11:30:32;;;;;;;5.18;4.68;;;10.60;99.90;;;;;;5046003;28;20231;-84
2023/11/17 11:32:59;;;;;;;6.18;5.10;;;10.40;99.90;;;;;;5062286;28;20234;-83
2023/11/17 11:35:27;;;;;;;6.05;3.97;;;10.40;99.90;;;;;;5062226;28;20238;-84
2023/11/17 11:37:56;;;;;;;7.88;4.82;;;10.40;99.90;;;;;;5054672;28;20267;-83
2023/11/17 11:40:23;;;;;;;6.22;4.50;;;10.40;99.90;;;;;;5058344;28;20348;-83
2023/11/17 11:42:50;;;;;;;6.70;4.65;;;10.30;99.90;;;;;;5059593;28;20262;-83
2023/11/17 11:45:19;;;;;;;5.10;4.18;;;10.20;99.90;;;;;;5055278;28;20277;-82
2023/11/17 11:47:49;;;;;;;6.65;6.00;;;10.20;99.90;;;;;;5056342;28;20199;-83
2023/11/17 11:50:22;;;;;;;7.18;5.28;;;10.10;99.90;;;;;;5059171;28;20234;-84
2023/11/17 11:53:09;;;;;;;6.22;4.85;;;9.90;99.90;;;;;;5061729;28;20236;-84
2023/11/17 11:55:37;;;;;;;8.13;6.25;;;9.90;99.90;;;;;;5057520;28;20208;-82
2023/11/17 11:58:04;;;;;;;5.93;4.45;;;9.90;99.90;;;;;;5048982;28;20292;-83
2023/11/17 12:00:32;;;;;;;6.93;4.85;;;9.80;99.90;;;;;;5055827;28;20266;-84
2023/11/17 12:03:00;;;;;;;5.25;4.43;;;9.70;99.90;;;;;;5058598;28;20234;-84
2023/11/17 12:05:33;;;;;;;5.20;4.70;;;9.60;99.90;;;;;;5065702;28;20215;-84
2023/11/17 12:08:03;;;;;;;4.97;4.47;;;9.60;99.90;;;;;;5067788;28;20212;-83
2023/11/17 12:10:35;;;;;;;6.63;4.50;;;9.70;99.90;;;;;;5065337;28;20237;-83
2023/11/17 12:13:04;;;;;;;8.38;5.38;;;9.70;99.90;;;;;;5066548;28;20215;-83
2023/11/17 12:15:32;;;;;;;5.97;4.72;;;9.70;99.90;;;;;;5065013;28;20231;-83
2023/11/17 12:18:00;;;;;;;6.43;5.15;;;9.70;99.90;;;;;;5069813;28;20199;-82
2023/11/17 12:20:29;;;;;;;8.27;6.03;;;9.70;99.90;;;;;;5056704;28;20230;-83
2023/11/17 12:23:00;;;;;;;5.50;5.00;;;9.80;99.90;;;;;;5053388;28;20204;-83
2023/11/17 12:25:30;;;;;;;5.47;4.50;;;9.80;99.90;;;;;;5071518;28;20222;-83
2023/11/17 12:27:59;;;;;;;7.18;4.40;;;9.90;99.90;;;;;;5067213;28;20254;-83
2023/11/17 12:30:27;;;;;;;7.03;5.40;;;9.80;99.90;;;;;;5060089;28;20697;-83
2023/11/17 12:32:56;;;;;;;6.22;4.82;;;9.80;99.90;;;;;;5063952;28;20271;-83
2023/11/17 12:35:23;;;;;;;7.25;4.93;;;9.80;99.90;;;;;;5065338;28;20199;-83
2023/11/17 12:37:51;;;;;;;6.40;5.05;;;9.80;99.90;;;;;;5065411;28;20224;-83
2023/11/17 12:40:19;;;;;;;6.40;4.90;;;9.90;99.90;;;;;;5064604;28;20363;-84
2023/11/17 12:42:48;;;;;;;5.47;4.45;;;10.00;99.90;;;;;;5061413;28;20263;-83
2023/11/17 12:45:16;;;;;;;4.65;3.50;;;9.90;99.90;;;;;;5061735;28;20288;-83
2023/11/17 12:47:44;;;;;;;5.10;4.32;;;9.80;99.90;;;;;;5067886;28;20261;-83
2023/11/17 12:50:11;;;;;;;5.93;4.78;;;9.80;99.90;;;;;;5074220;28;20250;-82
2023/11/17 12:52:55;;;;;;;4.70;4.30;;;9.80;99.90;;;;;;5062048;28;20227;-83
2023/11/17 12:55:22;;;;;;;4.90;4.28;;;9.80;99.90;;;;;;5060856;28;20192;-83
2023/11/17 12:57:50;;;;;;;5.97;4.30;;;10.00;99.90;;;;;;5075657;28;20213;-82
2023/11/17 13:00:27;;;;;;;6.50;5.30;;;10.10;99.90;;;;;;5077522;28;20215;-83
2023/11/17 13:02:56;;;;;;;5.68;4.55;;;10.40;99.90;;;;;;5061592;28;20450;-84